Terminal Aerodrome Forecast
Issued by NWS

Home | Current Version | Previous Version | Text Only | Print | Product List | Glossary On
Versions: 1 2 3 4 5 6 7 8 9 10 11 12 13
000
FTUS42 KTBW 172327
TAFLAL
TAF
KLAL 172327Z 1800/1824 VRB03KT P6SM SCT250
     FM180600 VRB03KT 5SM BR SCT010 SCT250
     FM180800 00000KT 2SM BR BKN010
     FM181400 VRB04KT P6SM SCT030 SCT250
      AMD NOT SKED 1803/1812=

USA.gov is the U.S. government's official web portal to all federal, state and local government web resources and services.